| time (UTC) | temp F | wind direction | speed MPH | gust MPH | rain 1hr in | rain 24hr in | rain mn in | humidity % | barometer mb |
| 20260507033740 | 46 | 360 | 0.0 | 0.0 | 0.00 | 0.00 | 0.05 | 86 | 1012.6 |
| 20260507032922 | 46 | 360 | 0.0 | 0.0 | 0.00 | 0.00 | 0.05 | 86 | 1012.6 |
| 20260507032045 | 46 | 360 | 0.0 | 0.0 | 0.00 | 0.00 | 0.05 | 87 | 1012.6 |
| 20260507031117 | 46 | 360 | 0.0 | 0.0 | 0.00 | 0.00 | 0.05 | 87 | 1012.4 |
| 20260507030304 | 46 | 360 | 0.0 | 0.0 | 0.00 | 0.00 | 0.05 | 86 | 1012.4 |
| 20260507025456 | 46 | 360 | 0.0 | 0.0 | 0.00 | 0.00 | 0.05 | 86 | 1012.5 |
| 20260507024642 | 46 | 360 | 0.0 | 0.0 | 0.00 | 0.00 | 0.05 | 86 | 1012.5 |
| 20260507023736 | 47 | 360 | 0.0 | 0.0 | 0.00 | 0.00 | 0.05 | 86 | 1012.6 |
| 20260507022813 | 47 | 360 | 0.0 | 0.0 | 0.00 | 0.00 | 0.05 | 86 | 1012.5 |
| 20260507021849 | 47 | 360 | 0.0 | 0.0 | 0.00 | 0.00 | 0.05 | 86 | 1012.5 |
| 20260507020859 | 47 | 360 | 0.0 | 0.0 | 0.00 | 0.00 | 0.05 | 86 | 1012.4 |
| 20260507020024 | 47 | 360 | 0.0 | 0.0 | 0.00 | 0.00 | 0.05 | 86 | 1012.4 |
| 20260507015135 | 47 | 360 | 0.0 | 0.0 | 0.00 | 0.00 | 0.05 | 86 | 1012.2 |
| 20260507014320 | 48 | 360 | 0.0 | 0.0 | 0.00 | 0.00 | 0.05 | 86 | 1012.3 |
| 20260507013516 | 48 | 360 | 0.0 | 0.0 | 0.00 | 0.00 | 0.05 | 86 | 1012.3 |
| 20260507012554 | 48 | 360 | 0.0 | 0.0 | 0.00 | 0.00 | 0.05 | 86 | 1012.2 |
| 20260507011609 | 48 | 360 | 0.0 | 0.0 | 0.00 | 0.00 | 0.05 | 86 | 1012.2 |
| 20260507010805 | 48 | 360 | 0.0 | 0.0 | 0.00 | 0.00 | 0.05 | 86 | 1012.0 |
| 20260507005807 | 49 | 360 | 0.0 | 0.0 | 0.00 | 0.00 | 0.05 | 86 | 1012.1 |
| 20260507004852 | 49 | 360 | 0.0 | 0.0 | 0.00 | 0.00 | 0.05 | 85 | 1012.1 |
| 20260507003858 | 49 | 360 | 0.0 | 0.0 | 0.00 | 0.00 | 0.05 | 85 | 1012.0 |
| 20260507003052 | 49 | 360 | 0.0 | 0.0 | 0.00 | 0.00 | 0.05 | 85 | 1011.9 |
| 20260507002219 | 49 | 360 | 0.0 | 0.0 | 0.00 | 0.00 | 0.05 | 85 | 1011.9 |
| 20260507001341 | 49 | 360 | 0.0 | 0.0 | 0.00 | 0.00 | 0.05 | 85 | 1011.9 |
| 20260507000427 | 49 | 360 | 0.0 | 0.0 | 0.00 | 0.00 | 0.05 | 85 | 1012.0 |
| 20260506235609 | 49 | 360 | 0.0 | 0.0 | 0.00 | 0.00 | 0.05 | 85 | 1012.1 |
| 20260506234652 | 50 | 360 | 0.0 | 0.0 | 0.00 | 0.00 | 0.05 | 85 | 1012.0 |
| 20260506233739 | 50 | 360 | 0.0 | 0.0 | 0.00 | 0.00 | 0.05 | 84 | 1011.9 |
| 20260506232914 | 50 | 360 | 0.0 | 0.0 | 0.00 | 0.00 | 0.05 | 84 | 1011.9 |
| 20260506232029 | 50 | 360 | 0.0 | 0.0 | 0.00 | 0.00 | 0.05 | 84 | 1011.9 |
| 20260506231228 | 50 | 360 | 0.0 | 0.0 | 0.00 | 0.00 | 0.05 | 84 | 1011.9 |
| 20260506230359 | 50 | 360 | 0.0 | 0.0 | 0.00 | 0.00 | 0.05 | 84 | 1012.1 |
| 20260506225422 | 50 | 360 | 0.0 | 0.0 | 0.00 | 0.00 | 0.05 | 84 | 1012.0 |
| 20260506224501 | 51 | 360 | 0.0 | 0.0 | 0.00 | 0.00 | 0.05 | 84 | 1011.9 |
| 20260506223701 | 51 | 360 | 0.0 | 0.0 | 0.00 | 0.00 | 0.05 | 84 | 1011.9 |
| 20260506222746 | 51 | 360 | 0.0 | 0.0 | 0.00 | 0.00 | 0.05 | 84 | 1011.9 |
| 20260506221916 | 51 | 360 | 0.0 | 0.0 | 0.00 | 0.00 | 0.05 | 84 | 1011.7 |
| 20260506221110 | 51 | 360 | 0.0 | 0.0 | 0.00 | 0.00 | 0.05 | 84 | 1011.7 |
| 20260506220200 | 51 | 360 | 0.0 | 0.0 | 0.00 | 0.00 | 0.05 | 84 | 1011.5 |
| 20260506215356 | 51 | 360 | 0.0 | 0.0 | 0.00 | 0.00 | 0.05 | 83 | 1011.6 |
| 20260506214427 | 51 | 360 | 0.0 | 0.0 | 0.00 | 0.00 | 0.05 | 83 | 1011.5 |
| 20260506213537 | 51 | 360 | 0.0 | 0.0 | 0.00 | 0.00 | 0.05 | 83 | 1011.5 |
| 20260506212655 | 51 | 360 | 0.0 | 0.0 | 0.00 | 0.00 | 0.05 | 83 | 1011.3 |
| 20260506211832 | 51 | 360 | 0.0 | 0.0 | 0.00 | 0.00 | 0.05 | 83 | 1011.2 |
| 20260506211032 | 52 | 360 | 0.0 | 0.0 | 0.00 | 0.00 | 0.05 | 83 | 1011.2 |
| 20260506210112 | 52 | 360 | 0.0 | 0.0 | 0.00 | 0.00 | 0.05 | 83 | 1011.2 |
| 20260506205121 | 52 | 360 | 0.0 | 0.0 | 0.00 | 0.00 | 0.05 | 83 | 1011.1 |
| 20260506204243 | 52 | 360 | 0.0 | 0.0 | 0.00 | 0.00 | 0.05 | 83 | 1011.0 |
| 20260506203328 | 52 | 360 | 0.0 | 0.0 | 0.00 | 0.00 | 0.05 | 83 | 1011.0 |
| 20260506202457 | 52 | 360 | 0.0 | 0.0 | 0.00 | 0.00 | 0.05 | 83 | 1010.8 |
| 20260506201606 | 52 | 360 | 0.0 | 0.0 | 0.00 | 0.00 | 0.05 | 84 | 1010.8 |
| 20260506200642 | 52 | 360 | 0.0 | 0.0 | 0.00 | 0.00 | 0.05 | 84 | 1010.7 |
| 20260506195657 | 52 | 360 | 0.0 | 0.0 | 0.00 | 0.00 | 0.05 | 84 | 1010.6 |
| 20260506194843 | 52 | 360 | 0.0 | 0.0 | 0.00 | 0.00 | 0.05 | 84 | 1010.4 |
| 20260506193909 | 52 | 360 | 0.0 | 0.0 | 0.00 | 0.00 | 0.05 | 84 | 1010.4 |
| 20260506193041 | 52 | 360 | 0.0 | 0.0 | 0.00 | 0.00 | 0.05 | 84 | 1010.5 |
| 20260506192059 | 52 | 360 | 0.0 | 0.0 | 0.00 | 0.00 | 0.05 | 84 | 1010.4 |
| 20260506191132 | 53 | 360 | 0.0 | 0.0 | 0.00 | 0.00 | 0.05 | 85 | 1010.5 |
| 20260506190335 | 53 | 360 | 0.0 | 0.0 | 0.00 | 0.00 | 0.05 | 86 | 1010.2 |
| 20260506185356 | 54 | 360 | 0.0 | 0.0 | 0.00 | 0.00 | 0.05 | 86 | 1010.2 |
| 20260506184532 | 54 | 360 | 0.0 | 0.0 | 0.00 | 0.00 | 0.05 | 86 | 1010.0 |
| 20260506183653 | 54 | 360 | 0.0 | 0.0 | 0.00 | 0.00 | 0.05 | 86 | 1009.8 |
| 20260506182707 | 54 | 360 | 0.0 | 0.0 | 0.00 | 0.00 | 0.05 | 86 | 1009.6 |
| 20260506181757 | 54 | 360 | 0.0 | 0.0 | 0.00 | 0.00 | 0.05 | 86 | 1009.3 |
| 20260506180806 | 54 | 360 | 0.0 | 0.0 | 0.01 | 0.00 | 0.05 | 86 | 1009.3 |
| 20260506175940 | 54 | 360 | 0.0 | 0.0 | 0.04 | 0.00 | 0.05 | 86 | 1009.2 |
| 20260506175034 | 54 | 360 | 0.0 | 0.0 | 0.05 | 0.00 | 0.05 | 85 | 1009.0 |
| 20260506174137 | 55 | 360 | 0.0 | 0.0 | 0.05 | 0.00 | 0.05 | 84 | 1008.7 |
| 20260506173141 | 55 | 360 | 0.0 | 0.0 | 0.05 | 0.00 | 0.05 | 84 | 1008.8 |
| 20260506172312 | 55 | 360 | 0.0 | 0.0 | 0.05 | 0.00 | 0.05 | 83 | 1008.5 |
| 20260506171401 | 55 | 360 | 0.0 | 0.0 | 0.05 | 0.00 | 0.05 | 81 | 1008.3 |
| 20260506170510 | 56 | 360 | 0.0 | 0.0 | 0.04 | 0.00 | 0.04 | 79 | 1008.0 |
| 20260506165544 | 61 | 360 | 0.0 | 0.0 | 0.00 | 0.00 | 0.00 | 65 | 1007.7 |
| 20260506164712 | 63 | 360 | 0.0 | 0.0 | 0.00 | 0.00 | 0.00 | 62 | 1007.0 |
| 20260506163816 | 64 | 360 | 0.0 | 0.0 | 0.00 | 0.00 | 0.00 | 60 | 1006.7 |
| 20260506162923 | 65 | 360 | 0.0 | 0.0 | 0.00 | 0.00 | 0.00 | 57 | 1006.9 |
| 20260506161952 | 67 | 360 | 0.0 | 0.0 | 0.00 | 0.00 | 0.00 | 55 | 1006.8 |
| 20260506161048 | 67 | 360 | 0.0 | 0.0 | 0.00 | 0.00 | 0.00 | 53 | 1006.7 |
| 20260506160133 | 67 | 360 | 0.0 | 0.0 | 0.00 | 0.00 | 0.00 | 57 | 1006.5 |
| 20260506155202 | 67 | 360 | 0.0 | 0.0 | 0.00 | 0.00 | 0.00 | 57 | 1006.5 |
| 20260506154350 | 67 | 360 | 0.0 | 0.0 | 0.00 | 0.00 | 0.00 | 59 | 1006.8 |
| 20260506153427 | 67 | 360 | 0.0 | 0.0 | 0.00 | 0.00 | 0.00 | 59 | 1006.8 |
| 20260506152538 | 67 | 360 | 0.0 | 0.0 | 0.00 | 0.00 | 0.00 | 60 | 1006.7 |
| 20260506151721 | 67 | 360 | 0.0 | 0.0 | 0.00 | 0.00 | 0.00 | 64 | 1006.8 |
| 20260506150751 | 65 | 360 | 0.0 | 0.0 | 0.00 | 0.00 | 0.00 | 65 | 1006.6 |
| 20260506145916 | 64 | 360 | 0.0 | 0.0 | 0.00 | 0.00 | 0.00 | 64 | 1006.6 |
| 20260506144932 | 64 | 360 | 0.0 | 0.0 | 0.00 | 0.00 | 0.00 | 64 | 1006.8 |
| 20260506144032 | 65 | 360 | 0.0 | 0.0 | 0.00 | 0.00 | 0.00 | 65 | 1006.7 |
| 20260506143056 | 65 | 360 | 0.0 | 0.0 | 0.00 | 0.00 | 0.00 | 62 | 1006.6 |
| 20260506142222 | 66 | 360 | 0.0 | 0.0 | 0.00 | 0.00 | 0.00 | 60 | 1007.0 |
| 20260506141240 | 66 | 360 | 0.0 | 0.0 | 0.00 | 0.00 | 0.00 | 60 | 1006.9 |
| 20260506140337 | 67 | 360 | 0.0 | 0.0 | 0.00 | 0.00 | 0.00 | 60 | 1006.8 |
| 20260506135526 | 67 | 360 | 0.0 | 0.0 | 0.00 | 0.00 | 0.00 | 58 | 1006.8 |
| 20260506134545 | 68 | 360 | 0.0 | 0.0 | 0.00 | 0.00 | 0.00 | 57 | 1006.7 |
| 20260506133717 | 68 | 360 | 0.0 | 0.0 | 0.00 | 0.00 | 0.00 | 58 | 1006.7 |
| 20260506132912 | 69 | 360 | 0.0 | 0.0 | 0.00 | 0.00 | 0.00 | 53 | 1006.7 |
| 20260506132053 | 69 | 360 | 0.0 | 0.0 | 0.00 | 0.00 | 0.00 | 55 | 1006.8 |
| 20260506131108 | 70 | 360 | 0.0 | 0.0 | 0.00 | 0.00 | 0.00 | 56 | 1006.8 |
| 20260506130310 | 69 | 360 | 0.0 | 0.0 | 0.00 | 0.00 | 0.00 | 57 | 1006.9 |
| 20260506125447 | 68 | 360 | 0.0 | 0.0 | 0.00 | 0.00 | 0.00 | 58 | 1006.8 |
| 20260506124627 | 68 | 360 | 0.0 | 0.0 | 0.00 | 0.00 | 0.00 | 60 | 1006.8 |
| 20260506123637 | 68 | 360 | 0.0 | 0.0 | 0.00 | 0.00 | 0.00 | 60 | 1007.0 |
| 20260506122733 | 67 | 360 | 0.0 | 0.0 | 0.00 | 0.00 | 0.00 | 60 | 1007.2 |
| 20260506121900 | 67 | 360 | 0.0 | 0.0 | 0.00 | 0.00 | 0.00 | 60 | 1007.2 |
| 20260506121025 | 67 | 360 | 0.0 | 0.0 | 0.00 | 0.00 | 0.00 | 60 | 1007.2 |
| 20260506120136 | 68 | 360 | 0.0 | 0.0 | 0.00 | 0.00 | 0.00 | 55 | 1007.4 |
| 20260506115310 | 68 | 360 | 0.0 | 0.0 | 0.00 | 0.00 | 0.00 | 56 | 1007.5 |
| 20260506114507 | 67 | 360 | 0.0 | 0.0 | 0.00 | 0.00 | 0.00 | 58 | 1007.5 |
| 20260506113509 | 67 | 360 | 0.0 | 0.0 | 0.00 | 0.00 | 0.00 | 58 | 1007.6 |
| 20260506112605 | 68 | 360 | 0.0 | 0.0 | 0.00 | 0.00 | 0.00 | 57 | 1007.7 |
| 20260506111608 | 68 | 360 | 0.0 | 0.0 | 0.00 | 0.00 | 0.00 | 63 | 1007.8 |
| 20260506110718 | 67 | 360 | 0.0 | 0.0 | 0.00 | 0.00 | 0.00 | 61 | 1008.0 |
| 20260506105741 | 67 | 360 | 0.0 | 0.0 | 0.00 | 0.00 | 0.00 | 63 | 1008.1 |
| 20260506104840 | 66 | 360 | 0.0 | 0.0 | 0.00 | 0.00 | 0.00 | 66 | 1008.2 |
| 20260506104014 | 66 | 360 | 0.0 | 0.0 | 0.00 | 0.00 | 0.00 | 65 | 1008.3 |
| 20260506103138 | 65 | 360 | 0.0 | 0.0 | 0.00 | 0.00 | 0.00 | 68 | 1008.4 |
| 20260506102323 | 63 | 360 | 0.0 | 0.0 | 0.00 | 0.00 | 0.00 | 69 | 1008.5 |
| 20260506101507 | 63 | 360 | 0.0 | 0.0 | 0.00 | 0.00 | 0.00 | 68 | 1008.6 |
| 20260506100613 | 62 | 360 | 0.0 | 0.0 | 0.00 | 0.00 | 0.00 | 71 | 1008.7 |
| 20260506095723 | 62 | 360 | 0.0 | 0.0 | 0.00 | 0.00 | 0.00 | 68 | 1008.5 |
| 20260506094822 | 63 | 360 | 0.0 | 0.0 | 0.00 | 0.00 | 0.00 | 69 | 1008.7 |
| 20260506093950 | 62 | 360 | 0.0 | 0.0 | 0.00 | 0.00 | 0.00 | 70 | 1008.6 |
| 20260506093001 | 62 | 360 | 0.0 | 0.0 | 0.00 | 0.00 | 0.00 | 69 | 1008.6 |
| 20260506092012 | 63 | 360 | 0.0 | 0.0 | 0.00 | 0.00 | 0.00 | 70 | 1008.7 |
| 20260506091136 | 62 | 360 | 0.0 | 0.0 | 0.00 | 0.00 | 0.00 | 71 | 1008.7 |
| 20260506090235 | 62 | 360 | 0.0 | 0.0 | 0.00 | 0.00 | 0.00 | 69 | 1008.7 |
| 20260506085257 | 62 | 360 | 0.0 | 0.0 | 0.00 | 0.00 | 0.00 | 71 | 1008.7 |
| 20260506084446 | 62 | 360 | 0.0 | 0.0 | 0.00 | 0.00 | 0.00 | 71 | 1008.7 |
| 20260506083621 | 61 | 360 | 0.0 | 0.0 | 0.00 | 0.00 | 0.00 | 71 | 1008.7 |
| 20260506082650 | 61 | 360 | 0.0 | 0.0 | 0.00 | 0.00 | 0.00 | 72 | 1008.7 |
| 20260506081837 | 61 | 360 | 0.0 | 0.0 | 0.00 | 0.00 | 0.00 | 72 | 1008.9 |
| 20260506080931 | 61 | 360 | 0.0 | 0.0 | 0.00 | 0.00 | 0.00 | 72 | 1008.8 |
| 20260506073206 | 59 | 360 | 0.0 | 0.0 | 0.00 | 0.00 | 0.00 | 77 | 1009.0 |
| 20260506072241 | 58 | 360 | 0.0 | 0.0 | 0.00 | 0.00 | 0.00 | 77 | 1009.1 |
| 20260506071344 | 58 | 360 | 0.0 | 0.0 | 0.00 | 0.00 | 0.00 | 78 | 1009.2 |
| 20260506070538 | 57 | 360 | 0.0 | 0.0 | 0.00 | 0.00 | 0.00 | 78 | 1009.1 |
| 20260506062344 | 54 | 360 | 0.0 | 0.0 | 0.00 | 0.00 | 0.00 | 82 | 1009.1 |
| 20260506061422 | 54 | 360 | 0.0 | 0.0 | 0.00 | 0.00 | 0.00 | 82 | 1008.8 |
| 20260506060610 | 54 | 360 | 0.0 | 0.0 | 0.00 | 0.00 | 0.00 | 83 | 1008.8 |
| 20260506051302 | 51 | 360 | 0.0 | 0.0 | 0.00 | 0.00 | 0.00 | 84 | 1009.2 |
| 20260506050449 | 51 | 360 | 0.0 | 0.0 | 0.00 | 0.00 | 0.00 | 84 | 1009.2 |
| 20260506044750 | 52 | 360 | 0.0 | 0.0 | 0.00 | 0.00 | 0.00 | 84 | 1009.2 |
| 20260506043759 | 52 | 360 | 0.0 | 0.0 | 0.00 | 0.00 | 0.00 | 84 | 1009.3 |
| 20260506043001 | 52 | 360 | 0.0 | 0.0 | 0.00 | 0.00 | 0.00 | 84 | 1009.4 |
| 20260506042119 | 51 | 360 | 0.0 | 0.0 | 0.00 | 0.00 | 0.00 | 84 | 1009.3 |
| 20260506041212 | 51 | 360 | 0.0 | 0.0 | 0.00 | 0.00 | 0.00 | 84 | 1009.5 |
| 20260506040221 | 51 | 360 | 0.0 | 0.0 | 0.00 | 0.00 | 0.00 | 85 | 1009.6 |
| 20260506035222 | 51 | 360 | 0.0 | 0.0 | 0.00 | 0.00 | 0.00 | 85 | 1009.4 |
| 20260506034312 | 51 | 360 | 0.0 | 0.0 | 0.00 | 0.00 | 0.00 | 85 | 1009.6 |